CDT,Max TemperatureF,Mean TemperatureF,Min TemperatureF,Max Dew PointF,MeanDew PointF,Min DewpointF,Max Humidity, Mean Humidity, Min Humidity, Max Sea Level PressureIn, Mean Sea Level PressureIn, Min Sea Level PressureIn, Max VisibilityMiles, Mean VisibilityMiles, Min VisibilityMiles, Max Wind SpeedMPH, Mean Wind SpeedMPH, Max Gust SpeedMPH,PrecipitationIn, CloudCover, Events, WindDirDegrees
2013-7-1,69,66,62,64,62,61,94,91,78,29.94,29.91,29.86,10,9,2,12,5,18,0.78,8,,9
2013-7-2,69,66,64,64,63,63,94,93,83,30.03,29.96,29.90,10,7,2,12,7,16,1.94,8,Thunderstorm,17
2013-7-3,80,70,59,63,60,54,94,75,39,30.12,30.08,30.01,10,8,3,7,1,,0.00,4,,290
2013-7-4,82,68,55,66,61,52,100,77,48,30.13,30.09,30.04,10,8,2,9,2,,0.00,1,,91
2013-7-5,80,66,53,66,64,61,100,89,65,30.13,30.09,30.05,10,9,2,10,1,,0.00,4,,89
2013-7-6,87,73,60,70,65,57,100,75,48,30.10,30.06,30.01,10,10,4,12,5,46,0.56,4,Thunderstorm,151
2013-7-7,89,71,53,70,65,57,100,76,46,30.11,30.07,30.03,10,10,3,9,3,,0.57,0,,193
2013-7-8,89,76,64,72,69,64,100,85,52,30.15,30.10,30.06,10,9,2,15,4,,0.00,0,,205
2013-7-9,91,74,57,75,73,70,100,92,55,30.10,30.05,29.98,10,10,10,15,6,,0.00,0,,196
2013-7-10,78,65,53,72,69,66,100,95,83,30.02,29.96,29.91,10,10,2,14,4,18,0.04,2,Thunderstorm,226
2013-7-11,82,71,62,68,62,59,100,70,48,30.07,30.03,29.98,10,9,2,14,5,21,0.00,0,,24
2013-7-12,80,68,57,63,59,57,100,80,45,30.13,30.09,30.05,10,8,1,12,5,16,0.00,0,,32
2013-7-13,80,70,59,64,62,57,100,82,54,30.11,30.08,30.04,10,9,1,13,5,,0.00,0,Thunderstorm,39
2013-7-14,87,74,62,75,68,61,100,90,58,30.17,30.13,30.08,10,10,5,12,5,21,0.01,2,,79
2013-7-15,84,76,69,75,71,68,100,86,70,30.26,30.21,30.17,10,10,5,9,3,,0.00,2,,128
2013-7-16,91,82,73,73,72,70,94,65,49,30.33,30.30,30.26,10,10,10,8,3,,0.00,1,,109
2013-7-17,87,64,42,75,72,68,100,91,62,30.36,30.29,30.21,10,9,2,6,1,,0.00,0,,25
2013-7-18,55,63,30,77,51,9,94,62,40,30.24,30.15,30.06,10,7,2,10,1,,0.00,0,,133
2013-7-19,93,82,71,75,73,70,94,74,52,30.07,30.01,29.92,10,8,2,14,4,20,0.00,0,,198
2013-7-20,95,82,69,75,71,66,94,78,53,29.97,29.92,29.80,10,9,1,16,8,32,3.63,2,Thunderstorm,208
2013-7-21,84,76,69,73,70,66,94,84,66,29.99,29.93,29.88,10,9,0,9,2,,0.02,4,Thunderstorm,139
2013-7-22,87,78,71,75,71,70,94,80,62,29.88,29.85,29.81,10,10,6,10,5,,0.00,5,Thunderstorm,243
2013-7-23,89,81,73,75,73,66,100,77,59,29.91,29.84,29.78,10,10,3,12,4,16,0.00,2,Thunderstorm,257
2013-7-24,75,68,60,66,58,54,88,71,53,30.04,29.98,29.90,10,10,10,13,6,17,0.00,2,,22
2013-7-25,78,68,57,63,57,54,94,73,44,30.13,30.09,30.03,10,10,8,10,2,,0.00,0,,20
2013-7-26,80,68,57,66,61,54,94,79,54,30.10,30.06,29.99,10,10,9,12,3,,0.00,3,,206
2013-7-27,75,65,55,66,59,52,94,74,50,30.02,29.98,29.95,10,10,10,12,5,17,0.00,4,,292
2013-7-28,78,64,50,59,53,48,94,72,42,30.08,30.04,30.01,10,10,10,12,2,,0.00,2,,245
2013-7-29,80,66,53,66,60,52,94,77,44,30.19,30.15,30.08,10,9,2,9,2,,0.00,2,,201
2013-7-30,71,68,66,68,65,63,94,87,78,30.17,30.12,30.05,10,8,3,8,3,,0.60,6,,127
2013-7-31,84,76,68,72,70,66,94,81,66,30.06,30.02,29.98,10,8,1,7,2,,0.00,5,,13